createdAt,value
2018-01-29T00:01:49.698Z,100822.38
2018-01-29T00:04:15.647Z,100809.66
2018-01-29T00:06:41.583Z,100812.34
2018-01-29T00:09:07.540Z,100808.30
2018-01-29T00:11:33.469Z,100819.16
2018-01-29T00:13:59.406Z,100821.05
2018-01-29T00:16:25.355Z,100819.58
2018-01-29T00:18:51.300Z,100816.40
2018-01-29T00:21:17.235Z,100805.09
2018-01-29T00:23:43.174Z,100828.84
2018-01-29T00:26:09.129Z,100816.99
2018-01-29T00:28:35.058Z,100815.44
2018-01-29T00:31:00.989Z,100826.89
2018-01-29T00:33:26.911Z,100825.30
2018-01-29T00:35:52.849Z,100826.02
2018-01-29T00:38:18.787Z,100820.52
2018-01-29T00:40:44.740Z,100815.57
2018-01-29T00:43:10.729Z,100816.23
2018-01-29T00:45:36.656Z,100822.41
2018-01-29T00:48:02.619Z,100804.39
2018-01-29T00:50:28.559Z,100822.20
2018-01-29T00:52:54.501Z,100814.94
2018-01-29T00:55:20.449Z,100824.23
2018-01-29T00:57:46.393Z,100814.97
2018-01-29T01:00:12.343Z,100848.02
2018-01-29T01:02:38.273Z,100808.57
2018-01-29T01:05:04.205Z,100839.19
2018-01-29T01:07:30.192Z,100826.18
2018-01-29T01:09:56.127Z,100831.66
2018-01-29T01:12:22.076Z,100831.49
2018-01-29T01:14:48.029Z,100832.27
2018-01-29T01:17:13.975Z,100841.52
2018-01-29T01:19:39.926Z,100822.80
2018-01-29T01:22:05.864Z,100841.63
2018-01-29T01:24:31.805Z,100828.44
2018-01-29T01:26:57.761Z,100820.05
2018-01-29T01:29:23.733Z,100835.15
2018-01-29T01:31:49.683Z,100830.04
2018-01-29T01:34:15.629Z,100822.24
2018-01-29T01:36:41.591Z,100829.44
2018-01-29T01:39:07.535Z,100822.44
2018-01-29T01:41:33.483Z,100818.02
2018-01-29T01:43:59.488Z,100809.56
2018-01-29T01:46:25.428Z,100799.51
2018-01-29T01:48:51.375Z,100805.88
2018-01-29T01:51:17.314Z,100796.22
2018-01-29T01:53:43.240Z,100790.41
2018-01-29T01:56:09.199Z,100791.23
2018-01-29T01:58:35.147Z,100796.62
2018-01-29T02:01:01.083Z,100797.91
2018-01-29T02:03:27.009Z,100805.17
2018-01-29T02:05:52.929Z,100800.80
2018-01-29T02:08:18.851Z,100804.62
2018-01-29T02:13:17.206Z,100796.59
2018-01-29T02:15:43.128Z,100803.05
2018-01-29T02:18:09.048Z,100792.63
2018-01-29T02:20:35.010Z,100799.78
2018-01-29T02:23:00.956Z,100797.69
2018-01-29T02:25:26.882Z,100795.06
2018-01-29T02:27:52.810Z,100785.46
2018-01-29T02:30:18.750Z,100790.08
2018-01-29T02:32:44.692Z,100785.83
2018-01-29T02:35:10.628Z,100784.48
2018-01-29T02:37:36.577Z,100790.78
2018-01-29T02:40:02.518Z,100776.02
2018-01-29T02:42:28.459Z,100787.63
2018-01-29T02:44:54.402Z,100776.34
2018-01-29T02:47:20.358Z,100773.84
2018-01-29T02:49:46.291Z,100768.02
2018-01-29T02:52:12.224Z,100769.62
2018-01-29T02:54:38.170Z,100778.31
2018-01-29T02:57:04.124Z,100776.69
2018-01-29T02:59:30.052Z,100769.55
2018-01-29T03:01:56.019Z,100768.40
2018-01-29T03:04:21.956Z,100764.56
2018-01-29T03:06:47.892Z,100775.09
2018-01-29T03:09:13.820Z,100761.69
2018-01-29T03:11:39.768Z,100754.06
2018-01-29T03:14:05.712Z,100739.63
2018-01-29T03:16:31.650Z,100749.34
2018-01-29T03:18:57.587Z,100744.14
2018-01-29T03:21:23.558Z,100741.44
2018-01-29T03:23:49.500Z,100733.66
2018-01-29T03:26:15.442Z,100739.47
2018-01-29T03:28:41.384Z,100724.43
2018-01-29T03:31:07.347Z,100732.06
2018-01-29T03:33:33.266Z,100733.54
2018-01-29T03:35:59.216Z,100725.97
2018-01-29T03:38:25.160Z,100718.89
2018-01-29T03:40:51.107Z,100725.30
2018-01-29T03:43:17.061Z,100728.98
2018-01-29T03:45:43.040Z,100720.77
2018-01-29T03:48:08.994Z,100726.98
2018-01-29T03:50:34.942Z,100727.19
2018-01-29T03:53:00.904Z,100733.02
2018-01-29T03:55:26.858Z,100733.75
2018-01-29T03:57:52.852Z,100741.38
2018-01-29T04:00:18.806Z,100743.07
2018-01-29T04:02:44.736Z,100752.79
2018-01-29T04:05:10.662Z,100746.97
2018-01-29T04:07:36.576Z,100741.44
2018-01-29T04:10:02.502Z,100743.50
2018-01-29T04:12:28.493Z,100753.66
2018-01-29T04:14:54.449Z,100736.64
2018-01-29T04:17:20.378Z,100726.95
2018-01-29T04:19:46.344Z,100731.27
2018-01-29T04:22:12.283Z,100716.09
2018-01-29T04:24:38.226Z,100726.64
2018-01-29T04:27:04.177Z,100722.49
2018-01-29T04:29:30.110Z,100718.02
2018-01-29T04:31:56.048Z,100711.54
2018-01-29T04:34:21.990Z,100719.14
2018-01-29T04:36:47.943Z,100712.43
2018-01-29T04:39:13.869Z,100699.15
2018-01-29T04:41:39.859Z,100698.44
2018-01-29T04:44:05.802Z,100695.19
2018-01-29T04:46:31.776Z,100698.52
2018-01-29T04:48:57.733Z,100685.17
2018-01-29T04:51:23.678Z,100684.02
2018-01-29T04:53:51.700Z,100677.39
2018-01-29T04:56:18.714Z,100671.95
2018-01-29T04:58:44.749Z,100679.58
2018-01-29T05:01:10.689Z,100681.28
2018-01-29T05:03:36.625Z,100675.10
2018-01-29T05:06:02.544Z,100672.95
2018-01-29T05:08:28.495Z,100668.38
2018-01-29T05:10:54.431Z,100675.22
2018-01-29T05:13:20.365Z,100674.87
2018-01-29T05:15:46.323Z,100665.70
2018-01-29T05:18:12.284Z,100664.02
2018-01-29T05:20:38.235Z,100667.83
2018-01-29T05:23:04.254Z,100666.97
2018-01-29T05:25:30.217Z,100661.63
2018-01-29T05:27:56.227Z,100660.83
2018-01-29T05:30:22.163Z,100679.72
2018-01-29T05:32:48.113Z,100677.59
2018-01-29T05:35:14.043Z,100670.86
2018-01-29T05:37:40.000Z,100671.20
2018-01-29T05:40:06.028Z,100670.92
2018-01-29T05:42:31.945Z,100660.12
2018-01-29T05:44:57.879Z,100651.32
2018-01-29T05:47:23.887Z,100637.52
2018-01-29T05:49:49.855Z,100654.49
2018-01-29T05:52:15.819Z,100646.87
2018-01-29T05:54:41.767Z,100647.89
2018-01-29T05:57:07.729Z,100648.19
2018-01-29T05:59:33.666Z,100646.28
2018-01-29T06:01:59.617Z,100644.52
2018-01-29T06:04:25.550Z,100643.28
2018-01-29T06:06:51.517Z,100651.25
2018-01-29T06:09:17.453Z,100643.73
2018-01-29T06:11:43.401Z,100641.74
2018-01-29T06:14:09.365Z,100647.01
2018-01-29T06:16:35.333Z,100638.58
2018-01-29T06:19:01.264Z,100640.13
2018-01-29T06:21:27.197Z,100637.23
2018-01-29T06:23:53.167Z,100648.70
2018-01-29T06:26:19.107Z,100654.67
2018-01-29T06:28:45.043Z,100658.59
2018-01-29T06:31:10.999Z,100657.45
2018-01-29T06:33:36.961Z,100654.73
2018-01-29T06:36:02.880Z,100656.96
2018-01-29T06:38:28.819Z,100651.43
2018-01-29T06:40:54.767Z,100665.93
2018-01-29T06:43:20.702Z,100669.46
2018-01-29T06:45:46.642Z,100672.18
2018-01-29T06:48:12.593Z,100664.21
2018-01-29T06:50:38.535Z,100657.39
2018-01-29T06:53:04.502Z,100645.86
2018-01-29T06:55:30.448Z,100650.16
2018-01-29T06:57:56.397Z,100650.07
2018-01-29T07:00:22.338Z,100647.48
2018-01-29T07:02:48.297Z,100644.11
2018-01-29T07:05:14.240Z,100647.46
2018-01-29T07:07:40.195Z,100642.98
2018-01-29T07:10:06.133Z,100646.61
2018-01-29T07:12:32.085Z,100639.01
2018-01-29T07:14:58.155Z,100638.50
2018-01-29T07:17:24.142Z,100636.48
2018-01-29T07:19:50.071Z,100634.66
2018-01-29T07:22:15.999Z,100637.20
2018-01-29T07:24:42.038Z,100641.02
2018-01-29T07:27:07.980Z,100632.92
2018-01-29T07:29:33.936Z,100636.96
2018-01-29T07:32:00.438Z,100638.64
2018-01-29T07:34:26.373Z,100639.78
2018-01-29T07:36:52.321Z,100627.55
2018-01-29T07:39:18.267Z,100629.31
2018-01-29T07:41:44.233Z,100623.33
2018-01-29T07:44:10.193Z,100625.86
2018-01-29T07:46:36.164Z,100621.77
2018-01-29T07:49:02.112Z,100615.08
2018-01-29T07:51:28.066Z,100611.47
2018-01-29T07:53:53.994Z,100605.17
2018-01-29T07:56:19.957Z,100605.16
2018-01-29T07:58:45.896Z,100601.53
2018-01-29T08:01:11.853Z,100603.39
2018-01-29T08:03:37.827Z,100599.67
2018-01-29T08:06:03.777Z,100586.66
2018-01-29T08:08:29.726Z,100599.29
2018-01-29T08:10:55.719Z,100593.52
2018-01-29T08:13:21.658Z,100603.37
2018-01-29T08:15:47.609Z,100595.51
2018-01-29T08:18:13.596Z,100590.80
2018-01-29T08:20:39.576Z,100606.81
2018-01-29T08:23:05.559Z,100602.65
2018-01-29T08:25:31.494Z,100599.35
2018-01-29T08:27:57.413Z,100597.59
2018-01-29T08:30:23.365Z,100603.50
2018-01-29T08:32:49.374Z,100600.66
2018-01-29T08:35:15.352Z,100605.47
2018-01-29T08:37:41.285Z,100599.87
2018-01-29T08:40:07.235Z,100602.78
2018-01-29T08:42:33.183Z,100602.19
2018-01-29T08:44:59.138Z,100604.66
2018-01-29T08:47:25.066Z,100610.81
2018-01-29T08:49:51.051Z,100612.05
2018-01-29T08:52:17.010Z,100606.14
2018-01-29T08:54:42.966Z,100608.77
2018-01-29T08:57:08.916Z,100612.91
2018-01-29T08:59:34.850Z,100609.06
2018-01-29T09:02:00.794Z,100597.98
2018-01-29T09:04:26.818Z,100608.93
2018-01-29T09:06:52.742Z,100606.53
2018-01-29T09:09:18.670Z,100607.86
2018-01-29T09:11:44.618Z,100606.83
2018-01-29T09:14:10.589Z,100610.27
2018-01-29T09:16:36.530Z,100602.49
2018-01-29T09:19:02.456Z,100590.38
2018-01-29T09:21:28.404Z,100585.56
2018-01-29T09:23:54.344Z,100587.37
2018-01-29T09:26:20.274Z,100588.69
2018-01-29T09:28:46.217Z,100587.94
2018-01-29T09:31:12.147Z,100595.81
2018-01-29T09:33:38.096Z,100599.06
2018-01-29T09:36:04.043Z,100595.74
2018-01-29T09:38:29.970Z,100604.62
2018-01-29T09:40:55.912Z,100608.93
2018-01-29T09:43:21.848Z,100606.72
2018-01-29T09:45:47.779Z,100602.49
2018-01-29T09:48:13.718Z,100605.84
2018-01-29T09:50:39.664Z,100607.39
2018-01-29T09:53:05.602Z,100593.02
2018-01-29T09:55:31.590Z,100599.66
2018-01-29T09:57:57.530Z,100598.44
2018-01-29T10:00:23.482Z,100588.73
2018-01-29T10:02:49.402Z,100590.52
2018-01-29T10:05:15.350Z,100588.49
2018-01-29T10:07:41.292Z,100598.94
2018-01-29T10:10:07.252Z,100600.60
2018-01-29T10:12:33.190Z,100599.66
2018-01-29T10:14:59.146Z,100599.69
2018-01-29T10:17:25.090Z,100597.70
2018-01-29T10:19:51.032Z,100602.19
2018-01-29T10:22:16.958Z,100589.37
2018-01-29T10:24:42.914Z,100587.91
2018-01-29T10:27:08.874Z,100579.48
2018-01-29T10:29:34.827Z,100590.41
2018-01-29T10:32:00.765Z,100586.60
2018-01-29T10:34:26.707Z,100585.89
2018-01-29T10:36:52.646Z,100574.13
2018-01-29T10:39:18.586Z,100577.14
2018-01-29T10:41:44.520Z,100562.86
2018-01-29T10:44:10.457Z,100552.32
2018-01-29T10:46:36.662Z,100554.41
2018-01-29T10:49:02.623Z,100550.82
2018-01-29T10:51:28.561Z,100558.37
2018-01-29T10:53:54.524Z,100538.98
2018-01-29T10:56:20.443Z,100542.41
2018-01-29T10:58:46.413Z,100553.94
2018-01-29T11:01:12.370Z,100553.51
2018-01-29T11:03:38.319Z,100540.09
2018-01-29T11:06:04.248Z,100552.02
2018-01-29T11:08:30.174Z,100541.08
2018-01-29T11:10:56.122Z,100542.73
2018-01-29T11:13:22.059Z,100533.06
2018-01-29T11:15:48.019Z,100497.45
2018-01-29T11:18:13.956Z,100526.31
2018-01-29T11:20:39.946Z,100515.32
2018-01-29T11:23:05.860Z,100496.78
2018-01-29T11:25:31.789Z,100505.62
2018-01-29T11:27:57.732Z,100497.28
2018-01-29T11:30:23.863Z,100496.12
2018-01-29T11:32:49.809Z,100498.52
2018-01-29T11:35:15.763Z,100485.88
2018-01-29T11:37:41.718Z,100489.69
2018-01-29T11:40:07.666Z,100479.71
2018-01-29T11:42:33.614Z,100472.81
2018-01-29T11:44:59.609Z,100470.75
2018-01-29T11:47:25.547Z,100457.86
2018-01-29T11:49:51.494Z,100457.39
2018-01-29T11:52:17.445Z,100459.09
2018-01-29T11:54:43.401Z,100456.53
2018-01-29T11:57:09.363Z,100446.72
2018-01-29T11:59:35.323Z,100452.30
2018-01-29T12:02:01.262Z,100451.55
2018-01-29T12:04:27.199Z,100443.90
2018-01-29T12:06:53.161Z,100437.25
2018-01-29T12:09:19.102Z,100432.59
2018-01-29T12:11:45.031Z,100439.64
2018-01-29T12:14:10.963Z,100426.88
2018-01-29T12:16:36.899Z,100437.66
2018-01-29T12:19:02.839Z,100430.86
2018-01-29T12:21:28.789Z,100427.84
2018-01-29T12:23:54.728Z,100426.17
2018-01-29T12:26:20.671Z,100424.09
2018-01-29T12:28:46.626Z,100425.75
2018-01-29T12:31:12.572Z,100422.25
2018-01-29T12:33:38.561Z,100414.59
2018-01-29T12:36:04.511Z,100403.05
2018-01-29T12:38:30.453Z,100400.94
2018-01-29T12:40:56.421Z,100399.67
2018-01-29T12:43:22.385Z,100382.43
2018-01-29T12:45:48.353Z,100386.31
2018-01-29T12:48:14.309Z,100382.24
2018-01-29T12:50:40.235Z,100385.55
2018-01-29T12:53:06.180Z,100371.61
2018-01-29T12:55:32.115Z,100377.12
2018-01-29T12:57:58.065Z,100369.50
2018-01-29T13:00:24.009Z,100357.72
2018-01-29T13:02:49.963Z,100357.77
2018-01-29T13:05:15.913Z,100356.16
2018-01-29T13:07:41.858Z,100351.48
2018-01-29T13:10:07.806Z,100345.31
2018-01-29T13:12:33.729Z,100336.02
2018-01-29T13:14:59.677Z,100339.41
2018-01-29T13:17:25.619Z,100335.26
2018-01-29T13:19:51.551Z,100334.37
2018-01-29T13:22:17.493Z,100331.73
2018-01-29T13:24:43.429Z,100330.54
2018-01-29T13:27:09.381Z,100310.86
2018-01-29T13:29:35.337Z,100306.69
2018-01-29T13:32:01.285Z,100303.68
2018-01-29T13:34:27.223Z,100301.27
2018-01-29T13:36:53.171Z,100293.27
2018-01-29T13:39:19.173Z,100291.18
2018-01-29T13:41:45.099Z,100287.39
2018-01-29T13:44:11.074Z,100280.93
2018-01-29T13:46:37.039Z,100275.47
2018-01-29T13:49:02.985Z,100270.06
2018-01-29T13:51:28.943Z,100278.48
2018-01-29T13:53:54.880Z,100274.27
2018-01-29T13:56:20.851Z,100277.09
2018-01-29T13:58:46.863Z,100291.84
2018-01-29T14:01:12.843Z,100275.44
2018-01-29T14:03:38.856Z,100267.44
2018-01-29T14:06:04.790Z,100265.38
2018-01-29T14:08:30.753Z,100256.53
2018-01-29T14:10:56.713Z,100260.73
2018-01-29T14:13:22.775Z,100251.92
2018-01-29T14:15:48.720Z,100247.62
2018-01-29T14:18:14.691Z,100248.52
2018-01-29T14:20:40.617Z,100246.47
2018-01-29T14:23:06.551Z,100239.72
2018-01-29T14:25:32.484Z,100221.98
2018-01-29T14:27:58.431Z,100231.27
2018-01-29T14:30:24.380Z,100223.70
2018-01-29T14:32:50.315Z,100227.02
2018-01-29T14:35:16.261Z,100227.88
2018-01-29T14:37:42.251Z,100223.61
2018-01-29T14:40:09.283Z,100222.41
2018-01-29T14:42:35.309Z,100222.45
2018-01-29T14:45:01.271Z,100210.09
2018-01-29T14:47:27.223Z,100212.20
2018-01-29T14:49:53.222Z,100208.88
2018-01-29T14:52:19.198Z,100204.60
2018-01-29T14:54:45.162Z,100209.61
2018-01-29T14:57:12.112Z,100210.53
2018-01-29T14:59:38.040Z,100216.02
2018-01-29T15:02:04.001Z,100205.89
2018-01-29T15:04:29.968Z,100208.84
2018-01-29T15:06:55.965Z,100201.71
2018-01-29T15:09:21.940Z,100204.13
2018-01-29T15:11:47.910Z,100203.63
2018-01-29T15:14:13.854Z,100199.02
2018-01-29T15:16:39.800Z,100193.91
2018-01-29T15:19:06.868Z,100202.37
2018-01-29T15:21:32.794Z,100203.22
2018-01-29T15:23:58.718Z,100204.03
2018-01-29T15:26:24.648Z,100188.87
2018-01-29T15:28:50.587Z,100180.41
2018-01-29T15:31:16.562Z,100181.75
2018-01-29T15:33:43.616Z,100183.80
2018-01-29T15:36:09.580Z,100188.48
2018-01-29T15:38:35.542Z,100170.30
2018-01-29T15:41:01.566Z,100177.52
2018-01-29T15:43:27.544Z,100179.61
2018-01-29T15:45:53.508Z,100187.16
2018-01-29T15:48:19.434Z,100183.77
2018-01-29T15:50:45.472Z,100185.11
2018-01-29T15:53:11.400Z,100176.30
2018-01-29T15:55:37.446Z,100180.00
2018-01-29T15:58:03.386Z,100186.33
2018-01-29T16:00:29.335Z,100181.66
2018-01-29T16:02:55.290Z,100177.03
2018-01-29T16:05:21.311Z,100173.59
2018-01-29T16:07:47.248Z,100177.41
2018-01-29T16:10:13.182Z,100171.84
2018-01-29T16:12:39.124Z,100173.59
2018-01-29T16:15:05.060Z,100173.65
2018-01-29T16:17:31.020Z,100176.17
2018-01-29T16:19:56.952Z,100172.28
2018-01-29T16:22:22.918Z,100163.45
2018-01-29T16:24:48.870Z,100169.39
2018-01-29T16:27:14.811Z,100174.86
2018-01-29T16:29:40.831Z,100138.08
2018-01-29T16:32:06.764Z,100146.50
2018-01-29T16:34:32.686Z,100163.08
2018-01-29T16:36:58.634Z,100163.52
2018-01-29T16:39:24.562Z,100160.13
2018-01-29T16:41:50.502Z,100161.45
2018-01-29T16:44:16.501Z,100161.64
2018-01-29T16:46:42.413Z,100163.32
2018-01-29T16:49:08.374Z,100156.69
2018-01-29T16:51:34.430Z,100163.69
2018-01-29T16:54:00.374Z,100161.08
2018-01-29T16:56:26.468Z,100147.12
2018-01-29T16:58:52.498Z,100139.11
2018-01-29T17:01:18.430Z,100139.95
2018-01-29T17:03:44.390Z,100130.72
2018-01-29T17:06:10.330Z,100134.86
2018-01-29T17:08:36.266Z,100131.95
2018-01-29T17:11:02.230Z,100123.52
2018-01-29T17:13:28.180Z,100128.55
2018-01-29T17:15:54.118Z,100137.32
2018-01-29T17:18:20.076Z,100125.48
2018-01-29T17:20:46.162Z,100122.20
2018-01-29T17:23:12.124Z,100121.41
2018-01-29T17:25:38.175Z,100121.42
2018-01-29T17:28:04.121Z,100122.58
2018-01-29T17:30:30.083Z,100102.77
2018-01-29T17:32:56.027Z,100109.95
2018-01-29T17:35:22.009Z,100102.42
2018-01-29T17:37:47.981Z,100106.22
2018-01-29T17:40:13.919Z,100105.36
2018-01-29T17:42:39.874Z,100093.17
2018-01-29T17:45:05.817Z,100098.22
2018-01-29T17:47:31.773Z,100099.45
2018-01-29T17:49:57.782Z,100100.29
2018-01-29T17:52:23.727Z,100094.01
2018-01-29T17:54:49.677Z,100090.63
2018-01-29T17:57:15.630Z,100091.84
2018-01-29T17:59:41.569Z,100090.19
2018-01-29T18:02:07.691Z,100085.46
2018-01-29T18:04:33.638Z,100084.67
2018-01-29T18:06:59.666Z,100070.69
2018-01-29T18:09:25.609Z,100070.31
2018-01-29T18:11:51.557Z,100055.44
2018-01-29T18:14:17.499Z,100065.27
2018-01-29T18:16:43.481Z,100055.47
2018-01-29T18:19:09.418Z,100048.78
2018-01-29T18:21:35.355Z,100045.87
2018-01-29T18:24:01.309Z,100038.27
2018-01-29T18:26:27.253Z,100030.66
2018-01-29T18:28:53.206Z,100036.04
2018-01-29T18:31:19.151Z,100038.64
2018-01-29T18:33:45.099Z,100027.28
2018-01-29T18:36:11.055Z,100024.22
2018-01-29T18:38:37.019Z,100019.27
2018-01-29T18:41:03.007Z,100005.04
2018-01-29T18:43:28.958Z,100012.05
2018-01-29T18:45:54.919Z,100011.34
2018-01-29T18:48:20.873Z,100002.05
2018-01-29T18:50:47.175Z,100015.55
2018-01-29T18:53:13.127Z,100016.72
2018-01-29T18:55:39.064Z,100000.42
2018-01-29T18:58:05.017Z,100011.23
2018-01-29T19:00:31.066Z,100007.08
2018-01-29T19:02:57.018Z,100003.66
2018-01-29T19:05:22.995Z,99982.73
2018-01-29T19:07:48.959Z,99989.39
2018-01-29T19:10:14.920Z,99998.64
2018-01-29T19:12:40.944Z,100007.10
2018-01-29T19:15:06.889Z,99997.73
2018-01-29T19:20:09.491Z,99998.20
2018-01-29T19:22:35.532Z,99993.56
2018-01-29T19:25:01.476Z,99983.93
2018-01-29T19:27:27.456Z,99979.23
2018-01-29T19:29:53.436Z,99973.47
2018-01-29T19:32:19.523Z,99975.12
2018-01-29T19:34:45.475Z,99981.46
2018-01-29T19:37:11.429Z,99978.93
2018-01-29T19:39:37.417Z,99981.02
2018-01-29T19:42:03.371Z,99970.07
2018-01-29T19:44:29.357Z,99972.12
2018-01-29T19:46:55.317Z,99973.33
2018-01-29T19:49:21.335Z,99970.44
2018-01-29T19:51:47.351Z,99952.27
2018-01-29T19:54:13.327Z,99956.14
2018-01-29T19:56:39.321Z,99944.38
2018-01-29T19:59:05.271Z,99944.44
2018-01-29T20:01:31.229Z,99947.28
2018-01-29T20:03:57.196Z,99938.02
2018-01-29T20:06:23.172Z,99951.08
2018-01-29T20:08:49.139Z,99951.02
2018-01-29T20:11:15.193Z,99965.84
2018-01-29T20:13:41.131Z,99945.98
2018-01-29T20:16:07.083Z,99944.33
2018-01-29T20:18:33.157Z,99954.42
2018-01-29T20:20:59.122Z,99957.39
2018-01-29T20:23:25.080Z,99951.44
2018-01-29T20:25:51.089Z,99944.25
2018-01-29T20:28:17.152Z,99943.01
2018-01-29T20:30:43.125Z,99935.05
2018-01-29T20:33:09.068Z,99929.20
2018-01-29T20:35:35.026Z,99929.17
2018-01-29T20:38:00.976Z,99935.45
2018-01-29T20:40:26.931Z,99923.59
2018-01-29T20:42:52.892Z,99929.05
2018-01-29T20:45:18.829Z,99931.64
2018-01-29T20:47:44.820Z,99932.03
2018-01-29T20:50:10.752Z,99931.17
2018-01-29T20:52:36.696Z,99937.59
2018-01-29T20:55:02.640Z,99942.98
2018-01-29T20:57:28.585Z,99946.58
2018-01-29T20:59:54.534Z,99944.98
2018-01-29T21:02:20.503Z,99952.09
2018-01-29T21:04:46.547Z,99960.52
2018-01-29T21:07:12.497Z,99961.81
2018-01-29T21:09:38.431Z,99957.70
2018-01-29T21:12:04.392Z,99966.09
2018-01-29T21:14:30.334Z,99950.80
2018-01-29T21:16:56.272Z,99939.11
2018-01-29T21:19:22.216Z,99945.77
2018-01-29T21:21:48.238Z,99957.15
2018-01-29T21:24:14.236Z,99951.29
2018-01-29T21:26:40.263Z,99942.11
2018-01-29T21:29:06.203Z,99959.82
2018-01-29T21:34:04.209Z,99964.39
2018-01-29T21:36:30.147Z,99956.30
2018-01-29T21:38:56.127Z,99964.20
2018-01-29T21:41:22.095Z,99957.12
2018-01-29T21:43:48.063Z,99973.88
2018-01-29T21:46:14.033Z,99967.23
2018-01-29T21:48:39.971Z,99966.85
2018-01-29T21:51:05.922Z,99974.34
2018-01-29T21:53:31.870Z,99956.69
2018-01-29T21:55:57.837Z,99955.42
2018-01-29T21:58:23.797Z,99959.56
2018-01-29T22:00:49.747Z,99965.84
2018-01-29T22:03:15.703Z,99965.48
2018-01-29T22:05:41.657Z,99960.84
2018-01-29T22:08:07.601Z,99958.34
2018-01-29T22:10:33.555Z,99961.79
2018-01-29T22:12:59.538Z,99942.30
2018-01-29T22:15:25.515Z,99961.67
2018-01-29T22:17:51.458Z,99962.13
2018-01-29T22:20:17.417Z,99954.24
2018-01-29T22:22:43.381Z,99966.88
2018-01-29T22:25:09.321Z,99962.51
2018-01-29T22:27:35.286Z,99961.07
2018-01-29T22:30:01.243Z,99964.16
2018-01-29T22:32:27.179Z,99964.13
2018-01-29T22:34:53.131Z,99971.69
2018-01-29T22:37:19.087Z,99974.25
2018-01-29T22:39:45.063Z,99965.52
2018-01-29T22:42:11.021Z,99982.36
2018-01-29T22:44:36.995Z,99993.27
2018-01-29T22:47:02.941Z,100004.56
2018-01-29T22:49:28.861Z,100012.93
2018-01-29T22:51:54.795Z,100037.36
2018-01-29T22:54:20.739Z,100064.88
2018-01-29T22:56:46.715Z,100130.75
2018-01-29T22:59:12.694Z,100113.31
2018-01-29T23:01:38.702Z,100129.73
2018-01-29T23:04:04.637Z,100118.16
2018-01-29T23:06:30.607Z,100129.91
2018-01-29T23:08:56.558Z,100153.63
2018-01-29T23:11:22.526Z,100121.55
2018-01-29T23:13:48.457Z,100141.45
2018-01-29T23:16:14.388Z,100144.00
2018-01-29T23:18:40.368Z,100151.30
2018-01-29T23:21:06.294Z,100184.48
2018-01-29T23:23:32.231Z,100165.65
2018-01-29T23:25:58.208Z,100173.44
2018-01-29T23:28:24.143Z,100205.09
2018-01-29T23:30:50.087Z,100172.66
2018-01-29T23:33:16.011Z,100182.64
2018-01-29T23:35:41.963Z,100195.95
2018-01-29T23:38:07.885Z,100208.23
2018-01-29T23:40:33.838Z,100213.72
2018-01-29T23:42:59.778Z,100218.78
2018-01-29T23:45:25.718Z,100228.34
2018-01-29T23:47:51.648Z,100249.77
2018-01-29T23:50:17.605Z,100247.26
2018-01-29T23:52:43.540Z,100266.75
2018-01-29T23:55:09.496Z,100268.25
2018-01-29T23:57:35.485Z,100273.12
